createdAt,value
2022-12-28T00:00:18.351Z,101400.59
2022-12-28T00:02:47.174Z,101399.81
2022-12-28T00:05:18.049Z,101397.34
2022-12-28T00:07:46.938Z,101399.19
2022-12-28T00:10:17.750Z,101386.22
2022-12-28T00:13:06.551Z,101390.75
2022-12-28T00:15:35.265Z,101392.63
2022-12-28T00:18:05.899Z,101337.16
2022-12-28T00:20:34.687Z,101386.59
2022-12-28T00:23:06.852Z,101384.97
2022-12-28T00:25:38.188Z,101388.53
2022-12-28T00:28:07.364Z,101383.34
2022-12-28T00:30:36.103Z,101379.84
2022-12-28T00:33:05.347Z,101379.91
2022-12-28T00:35:33.785Z,101341.19
2022-12-28T00:38:02.837Z,101367.78
2022-12-28T00:40:31.360Z,101363.41
2022-12-28T00:43:01.177Z,101363.41
2022-12-28T00:45:29.996Z,101372.19
2022-12-28T00:47:59.530Z,101370.44
2022-12-28T00:50:28.434Z,101364.41
2022-12-28T00:52:57.184Z,101362.69
2022-12-28T00:55:26.030Z,101357.47
2022-12-28T00:57:57.965Z,101357.50
2022-12-28T01:00:28.168Z,101187.38
2022-12-28T01:02:57.501Z,101350.56
2022-12-28T01:05:28.120Z,101343.56
2022-12-28T01:07:57.119Z,101348.00
2022-12-28T01:10:26.192Z,101354.09
2022-12-28T01:12:55.689Z,101348.78
2022-12-28T01:15:29.094Z,101363.72
2022-12-28T01:18:02.637Z,101354.13
2022-12-28T01:20:33.351Z,101337.50
2022-12-28T01:23:07.512Z,101342.75
2022-12-28T01:25:43.093Z,101037.84
2022-12-28T01:28:13.194Z,101350.59
2022-12-28T01:30:42.165Z,101352.38
2022-12-28T01:33:12.136Z,101242.31
2022-12-28T01:35:41.062Z,101343.69
2022-12-28T01:38:12.617Z,101332.34
2022-12-28T01:40:55.959Z,101176.47
2022-12-28T01:43:43.483Z,101328.88
2022-12-28T01:46:18.451Z,101327.13
2022-12-28T01:48:56.452Z,101323.66
2022-12-28T01:51:30.410Z,101322.78
2022-12-28T01:54:03.090Z,101225.06
2022-12-28T01:56:32.610Z,101157.28
2022-12-28T01:59:05.469Z,101297.31
2022-12-28T02:01:36.890Z,101297.41
2022-12-28T02:04:08.182Z,101297.41
2022-12-28T02:06:37.161Z,101288.69
2022-12-28T02:09:11.913Z,101216.44
2022-12-28T02:12:03.253Z,101270.28
2022-12-28T02:14:37.238Z,100983.22
2022-12-28T02:17:06.411Z,101261.41
2022-12-28T02:19:46.082Z,101138.88
2022-12-28T02:23:14.143Z,101084.72
2022-12-28T02:26:34.217Z,101245.56
2022-12-28T02:29:56.922Z,101246.03
2022-12-28T02:32:54.034Z,101190.28
2022-12-28T02:35:35.788Z,101108.03
2022-12-28T02:38:16.945Z,101214.69
2022-12-28T02:41:07.201Z,101219.88
2022-12-28T02:43:36.512Z,101169.53
2022-12-28T02:46:38.461Z,101166.91
2022-12-28T02:49:38.198Z,101207.34
2022-12-28T02:52:22.491Z,101201.09
2022-12-28T02:55:33.787Z,101195.03
2022-12-28T02:58:30.480Z,101192.28
2022-12-28T03:01:20.925Z,101151.72
2022-12-28T03:04:10.250Z,100993.94
2022-12-28T03:07:08.830Z,101177.31
2022-12-28T03:09:45.819Z,101017.88
2022-12-28T03:12:26.620Z,101053.09
2022-12-28T03:15:04.981Z,101165.91
2022-12-28T03:17:58.899Z,101127.19
2022-12-28T03:20:49.633Z,101145.81
2022-12-28T03:23:42.215Z,101148.53
2022-12-28T03:26:32.079Z,101119.56
2022-12-28T03:29:26.540Z,101137.25
2022-12-28T03:31:55.755Z,101135.56
2022-12-28T03:34:26.371Z,101102.28
2022-12-28T03:37:05.366Z,101040.78
2022-12-28T03:39:43.859Z,101113.22
2022-12-28T03:42:36.891Z,101108.88
2022-12-28T03:45:44.428Z,101109.72
2022-12-28T03:48:08.508Z,101094.13
2022-12-28T03:50:44.036Z,101095.97
2022-12-28T03:53:13.029Z,101085.63
2022-12-28T03:55:43.468Z,101081.28
2022-12-28T03:58:12.479Z,101073.56
2022-12-28T04:00:41.244Z,101068.38
2022-12-28T04:03:10.266Z,101060.63
2022-12-28T04:05:40.394Z,101038.78
2022-12-28T04:08:09.253Z,100962.31
2022-12-28T04:10:38.193Z,101058.28
2022-12-28T04:13:06.706Z,100973.06
2022-12-28T04:16:01.923Z,101048.72
2022-12-28T04:18:32.935Z,101046.09
2022-12-28T04:21:03.658Z,101015.28
2022-12-28T04:23:33.505Z,100969.59
2022-12-28T04:26:23.558Z,101047.06
2022-12-28T04:28:54.655Z,101035.78
2022-12-28T04:31:29.994Z,101035.75
2022-12-28T04:34:04.308Z,101032.25
2022-12-28T04:36:38.386Z,101028.78
2022-12-28T04:39:11.112Z,101030.53
2022-12-28T04:41:40.176Z,101027.13
2022-12-28T04:44:09.324Z,101026.28
2022-12-28T04:46:38.219Z,101024.56
2022-12-28T04:49:07.163Z,101014.09
2022-12-28T04:51:37.209Z,101008.06
2022-12-28T04:54:06.201Z,101013.34
2022-12-28T04:56:35.045Z,101002.84
2022-12-28T04:59:03.512Z,101001.16
2022-12-28T05:01:32.623Z,101002.91
2022-12-28T05:04:01.983Z,100989.81
2022-12-28T05:06:31.156Z,100987.19
2022-12-28T05:09:01.156Z,100982.78
2022-12-28T05:11:32.020Z,100971.38
2022-12-28T05:14:00.907Z,100975.72
2022-12-28T05:16:30.807Z,100872.00
2022-12-28T05:18:59.687Z,100971.34
2022-12-28T05:21:29.970Z,100900.91
2022-12-28T05:24:00.132Z,100973.91
2022-12-28T05:26:35.524Z,100914.13
2022-12-28T05:29:04.649Z,100972.13
2022-12-28T05:31:33.728Z,100970.31
2022-12-28T05:34:02.273Z,100966.81
2022-12-28T05:36:32.633Z,100967.69
2022-12-28T05:39:02.663Z,100814.03
2022-12-28T05:41:32.388Z,100933.59
2022-12-28T05:44:01.357Z,100960.88
2022-12-28T05:46:32.589Z,100960.97
2022-12-28T05:49:01.940Z,100896.88
2022-12-28T05:51:34.007Z,100908.38
2022-12-28T05:54:05.431Z,100959.38
2022-12-28T05:56:35.467Z,100956.84
2022-12-28T05:59:06.812Z,100920.84
2022-12-28T06:01:38.027Z,100956.91
2022-12-28T06:04:09.774Z,100956.91
2022-12-28T06:06:38.499Z,100950.75
2022-12-28T06:09:08.340Z,100954.22
2022-12-28T06:11:37.283Z,100753.19
2022-12-28T06:14:09.303Z,100936.75
2022-12-28T06:16:40.781Z,100936.72
2022-12-28T06:19:11.980Z,100790.00
2022-12-28T06:21:41.902Z,100924.38
2022-12-28T06:24:13.948Z,100920.00
2022-12-28T06:26:43.140Z,100913.00
2022-12-28T06:29:12.179Z,100920.03
2022-12-28T06:31:45.209Z,100915.63
2022-12-28T06:34:14.041Z,100868.19
2022-12-28T06:36:45.845Z,100805.81
2022-12-28T06:39:16.338Z,100897.16
2022-12-28T06:41:45.175Z,100910.31
2022-12-28T06:44:15.457Z,100898.97
2022-12-28T06:46:44.280Z,100902.50
2022-12-28T06:49:12.815Z,100862.97
2022-12-28T06:51:42.165Z,100894.69
2022-12-28T06:54:11.929Z,100891.19
2022-12-28T06:56:44.839Z,100843.78
2022-12-28T06:59:13.279Z,100874.63
2022-12-28T07:01:44.806Z,100854.53
2022-12-28T07:04:14.368Z,100877.44
2022-12-28T07:06:44.815Z,100860.75
2022-12-28T07:09:15.844Z,100770.41
2022-12-28T07:11:46.944Z,100607.28
2022-12-28T07:14:15.831Z,100866.25
2022-12-28T07:16:44.570Z,100868.91
2022-12-28T07:19:13.266Z,100871.59
2022-12-28T07:21:42.037Z,100874.28
2022-12-28T07:24:11.011Z,100874.34
2022-12-28T07:26:40.115Z,100858.69
2022-12-28T07:29:10.544Z,100810.50
2022-12-28T07:31:45.784Z,100843.91
2022-12-28T07:34:16.158Z,100857.16
2022-12-28T07:36:45.254Z,100855.44
2022-12-28T07:39:14.091Z,100856.34
2022-12-28T07:41:42.950Z,100849.41
2022-12-28T07:44:13.069Z,100716.13
2022-12-28T07:47:08.176Z,100829.38
2022-12-28T07:49:37.021Z,100841.75
2022-12-28T07:52:09.225Z,100805.88
2022-12-28T07:54:38.933Z,100836.63
2022-12-28T07:57:10.026Z,100835.72
2022-12-28T07:59:42.596Z,100833.94
2022-12-28T08:02:13.893Z,100836.56
2022-12-28T08:04:46.191Z,100828.69
2022-12-28T08:07:17.605Z,100823.44
2022-12-28T08:09:45.970Z,100815.56
2022-12-28T08:12:15.105Z,100815.56
2022-12-28T08:14:45.607Z,100734.03
2022-12-28T08:17:19.072Z,100814.72
2022-12-28T08:19:50.145Z,100812.09
2022-12-28T08:22:23.015Z,100826.16
2022-12-28T08:24:52.223Z,100822.72
2022-12-28T08:27:20.699Z,100669.38
2022-12-28T08:29:54.167Z,100810.53
2022-12-28T08:32:22.925Z,100797.44
2022-12-28T08:34:51.774Z,100713.31
2022-12-28T08:37:20.393Z,100779.06
2022-12-28T08:39:48.906Z,100611.78
2022-12-28T08:42:17.761Z,100786.06
2022-12-28T08:44:46.191Z,100737.00
2022-12-28T08:47:16.206Z,100787.78
2022-12-28T08:49:44.933Z,100778.16
2022-12-28T08:52:13.729Z,100774.66
2022-12-28T08:54:42.233Z,100455.28
2022-12-28T08:57:11.989Z,100741.38
2022-12-28T08:59:40.542Z,100726.50
2022-12-28T09:02:13.547Z,100751.88
2022-12-28T09:04:43.827Z,100767.63
2022-12-28T09:07:12.370Z,100701.09
2022-12-28T09:09:40.805Z,100756.25
2022-12-28T09:12:09.391Z,100589.94
2022-12-28T09:14:37.846Z,100760.66
2022-12-28T09:17:06.352Z,100758.88
2022-12-28T09:19:35.211Z,100747.44
2022-12-28T09:22:06.283Z,100748.28
2022-12-28T09:24:34.850Z,100743.00
2022-12-28T09:27:03.398Z,100631.88
2022-12-28T09:29:31.938Z,100621.31
2022-12-28T09:32:01.551Z,100741.94
2022-12-28T09:34:38.312Z,100738.31
2022-12-28T09:37:09.648Z,100637.69
2022-12-28T09:39:38.225Z,100576.44
2022-12-28T09:42:14.396Z,100697.03
2022-12-28T09:44:59.593Z,100722.44
2022-12-28T09:47:39.870Z,100727.69
2022-12-28T09:50:29.933Z,100720.66
2022-12-28T09:53:22.694Z,100707.44
2022-12-28T09:56:01.293Z,100582.44
2022-12-28T09:58:34.285Z,100697.84
2022-12-28T10:01:05.249Z,100689.94
2022-12-28T10:03:40.136Z,100554.53
2022-12-28T10:06:15.145Z,100683.78
2022-12-28T10:08:49.938Z,100635.81
2022-12-28T10:11:23.734Z,100500.34
2022-12-28T10:13:58.415Z,100566.56
2022-12-28T10:16:32.141Z,100667.63
2022-12-28T10:19:01.735Z,100622.09
2022-12-28T10:21:34.935Z,100484.03
2022-12-28T10:27:00.829Z,100662.88
2022-12-28T10:29:32.364Z,100663.66
2022-12-28T10:32:03.451Z,100670.59
2022-12-28T10:34:35.864Z,100657.34
2022-12-28T10:37:15.931Z,100538.72
2022-12-28T10:39:54.260Z,100626.16
2022-12-28T10:42:28.762Z,100602.69
2022-12-28T10:45:06.268Z,100652.59
2022-12-28T10:47:42.624Z,100571.28
2022-12-28T10:53:41.956Z,100648.16
2022-12-28T10:56:27.319Z,100631.53
2022-12-28T10:59:21.220Z,100640.91
2022-12-28T11:01:50.255Z,100508.13
2022-12-28T11:04:22.360Z,100602.38
2022-12-28T11:06:56.875Z,100575.31
2022-12-28T11:09:28.958Z,100607.50
2022-12-28T11:12:19.383Z,100496.53
2022-12-28T11:14:52.416Z,100618.63
2022-12-28T11:17:24.893Z,100597.56
2022-12-28T11:19:58.690Z,100612.34
2022-12-28T11:22:34.453Z,100569.47
2022-12-28T11:25:09.672Z,100316.72
2022-12-28T11:27:40.000Z,100454.63
2022-12-28T11:30:17.513Z,100481.78
2022-12-28T11:32:53.595Z,100417.31
2022-12-28T11:35:28.152Z,100477.66
2022-12-28T11:38:02.877Z,100595.41
2022-12-28T11:40:52.322Z,100609.38
2022-12-28T11:43:55.175Z,100564.03
2022-12-28T11:46:44.028Z,100525.41
2022-12-28T11:49:36.839Z,100588.16
2022-12-28T11:53:23.635Z,100568.09
2022-12-28T11:56:09.813Z,100562.63
2022-12-28T11:59:22.703Z,100566.88
2022-12-28T12:02:02.050Z,100517.19
2022-12-28T12:04:46.307Z,100566.00
2022-12-28T12:07:30.688Z,100531.16
2022-12-28T12:21:11.857Z,100499.16
2022-12-28T12:23:55.787Z,100550.50
2022-12-28T12:26:40.588Z,100441.53
2022-12-28T12:29:21.995Z,100445.03
2022-12-28T12:32:01.529Z,100462.38
2022-12-28T12:34:41.926Z,100340.31
2022-12-28T12:37:49.424Z,100539.69
2022-12-28T12:41:01.641Z,100530.16
2022-12-28T12:43:51.465Z,100525.88
2022-12-28T12:47:05.670Z,100363.88
2022-12-28T12:50:26.613Z,100407.56
2022-12-28T12:53:15.720Z,100522.53
2022-12-28T12:56:07.220Z,100529.59
2022-12-28T12:58:59.336Z,100262.03
2022-12-28T13:01:52.324Z,100490.25
2022-12-28T13:04:26.721Z,100363.97
2022-12-28T13:07:01.537Z,100523.41
2022-12-28T13:09:36.081Z,100418.69
2022-12-28T13:12:16.969Z,100368.25
2022-12-28T13:14:50.094Z,100357.00
2022-12-28T13:17:22.486Z,100339.75
2022-12-28T13:19:51.382Z,100521.03
2022-12-28T13:22:36.565Z,100484.47
2022-12-28T13:25:15.304Z,100391.16
2022-12-28T13:27:45.657Z,100517.50
2022-12-28T13:30:21.264Z,100498.19
2022-12-28T13:32:53.909Z,100261.16
2022-12-28T13:35:28.745Z,100510.34
2022-12-28T13:38:05.157Z,100392.78
2022-12-28T13:40:34.729Z,100489.63
2022-12-28T13:43:41.912Z,100459.97
2022-12-28T13:46:17.263Z,100524.56
2022-12-28T13:48:51.794Z,100459.88
2022-12-28T13:51:25.045Z,100516.59
2022-12-28T13:54:02.150Z,100429.31
2022-12-28T13:56:39.674Z,100492.22
2022-12-28T13:59:15.534Z,100424.91
2022-12-28T14:01:49.804Z,100402.25
2022-12-28T14:04:51.756Z,100511.19
2022-12-28T14:07:20.010Z,100332.63
2022-12-28T14:09:50.188Z,100265.59
2022-12-28T14:12:19.884Z,100518.28
2022-12-28T14:14:52.234Z,100380.50
2022-12-28T14:17:25.511Z,100314.19
2022-12-28T14:19:57.807Z,100334.25
2022-12-28T14:22:31.612Z,100251.47
2022-12-28T14:25:10.123Z,100373.56
2022-12-28T14:27:42.999Z,100506.06
2022-12-28T14:30:27.498Z,100397.03
2022-12-28T14:33:11.541Z,100312.63
2022-12-28T14:35:50.745Z,100250.81
2022-12-28T14:38:25.537Z,100500.06
2022-12-28T14:40:56.650Z,100247.34
2022-12-28T14:43:28.491Z,100273.59
2022-12-28T14:46:29.969Z,100396.38
2022-12-28T14:48:59.158Z,100514.19
2022-12-28T14:51:32.045Z,100394.78
2022-12-28T14:54:23.653Z,100495.88
2022-12-28T14:57:00.331Z,100457.53
2022-12-28T14:59:35.530Z,100447.09
2022-12-28T15:02:07.005Z,100373.00
2022-12-28T15:04:39.286Z,100273.66
2022-12-28T15:07:10.471Z,100511.72
2022-12-28T15:09:39.851Z,100444.56
2022-12-28T15:12:14.519Z,100494.25
2022-12-28T15:14:43.785Z,100503.81
2022-12-28T15:17:14.569Z,100395.84
2022-12-28T15:19:44.895Z,100451.56
2022-12-28T15:22:14.841Z,100510.16
2022-12-28T15:24:45.564Z,100508.44
2022-12-28T15:27:14.618Z,100500.59
2022-12-28T15:32:35.769Z,100453.50
2022-12-28T15:35:04.950Z,100494.53
2022-12-28T15:37:33.737Z,100461.44
2022-12-28T15:40:02.777Z,100488.50
2022-12-28T15:42:36.528Z,100482.44
2022-12-28T15:45:10.428Z,100469.41
2022-12-28T15:47:40.723Z,100313.44
2022-12-28T15:50:11.233Z,100459.03
2022-12-28T15:52:40.094Z,100475.72
2022-12-28T15:55:09.534Z,100386.66
2022-12-28T15:57:38.066Z,100487.81
2022-12-28T16:00:08.832Z,100449.47
2022-12-28T16:02:37.796Z,100482.53
2022-12-28T16:05:09.703Z,100485.19
2022-12-28T16:07:38.681Z,100480.78
2022-12-28T16:10:08.537Z,100411.06
2022-12-28T16:12:37.169Z,100417.22
2022-12-28T16:15:06.875Z,100399.75
2022-12-28T16:17:41.713Z,100257.66
2022-12-28T16:20:17.421Z,100384.91
2022-12-28T16:22:46.242Z,100346.50
2022-12-28T16:25:15.250Z,100483.41
2022-12-28T16:27:43.953Z,100424.06
2022-12-28T16:30:15.592Z,100477.19
2022-12-28T16:32:44.443Z,100473.66
2022-12-28T16:35:13.035Z,100423.06
2022-12-28T16:37:43.772Z,100476.28
2022-12-28T16:40:13.183Z,100386.50
2022-12-28T16:42:45.717Z,100477.09
2022-12-28T16:45:14.430Z,100474.47
2022-12-28T16:47:45.144Z,100469.28
2022-12-28T16:50:14.273Z,100481.47
2022-12-28T16:52:44.883Z,100301.88
2022-12-28T16:55:13.496Z,100470.97
2022-12-28T16:57:42.163Z,100184.28
2022-12-28T17:00:12.905Z,100474.53
2022-12-28T17:02:42.081Z,100469.28
2022-12-28T17:05:11.487Z,100466.66
2022-12-28T17:07:40.643Z,100459.63
2022-12-28T17:10:11.752Z,100309.66
2022-12-28T17:12:40.714Z,100455.22
2022-12-28T17:15:10.689Z,100441.19
2022-12-28T17:17:39.440Z,100440.31
2022-12-28T17:20:09.205Z,100364.56
2022-12-28T17:22:37.701Z,100242.56
2022-12-28T17:25:09.798Z,100430.78
2022-12-28T17:27:39.752Z,100449.06
2022-12-28T17:30:09.638Z,100410.63
2022-12-28T17:32:38.165Z,100344.38
2022-12-28T17:35:08.257Z,100304.31
2022-12-28T17:37:37.492Z,100354.81
2022-12-28T17:40:07.770Z,100387.06
2022-12-28T17:42:37.064Z,100435.81
2022-12-28T17:45:11.735Z,100393.97
2022-12-28T17:47:43.409Z,100434.13
2022-12-28T17:50:12.330Z,100426.22
2022-12-28T17:52:41.988Z,100423.59
2022-12-28T17:55:11.587Z,100404.44
2022-12-28T17:57:40.275Z,100342.50
2022-12-28T18:00:12.996Z,100347.66
2022-12-28T18:02:42.874Z,100352.03
2022-12-28T18:05:14.452Z,100414.75
2022-12-28T18:07:43.093Z,100419.13
2022-12-28T18:10:12.017Z,100291.00
2022-12-28T18:12:40.645Z,100417.38
2022-12-28T18:15:11.990Z,100356.34
2022-12-28T18:17:41.088Z,100404.19
2022-12-28T18:20:13.180Z,100295.25
2022-12-28T18:22:41.955Z,100279.56
2022-12-28T18:25:14.169Z,100377.97
2022-12-28T18:27:43.440Z,100390.13
2022-12-28T18:30:18.446Z,100395.38
2022-12-28T18:32:47.366Z,100397.06
2022-12-28T18:35:16.991Z,100385.66
2022-12-28T18:37:45.652Z,100346.47
2022-12-28T18:40:14.240Z,100392.63
2022-12-28T18:42:42.973Z,100399.63
2022-12-28T18:45:13.281Z,100394.38
2022-12-28T18:47:42.585Z,100390.84
2022-12-28T18:50:12.273Z,100344.72
2022-12-28T18:52:42.142Z,100357.81
2022-12-28T18:55:11.368Z,100390.84
2022-12-28T18:57:39.946Z,100385.56
2022-12-28T19:00:13.580Z,100368.16
2022-12-28T19:02:42.350Z,100400.47
2022-12-28T19:05:11.481Z,100391.72
2022-12-28T19:07:45.825Z,100400.50
2022-12-28T19:10:17.800Z,100395.25
2022-12-28T19:12:46.398Z,100383.94
2022-12-28T19:15:18.706Z,100390.84
2022-12-28T19:17:47.501Z,100270.75
2022-12-28T19:20:17.699Z,100388.28
2022-12-28T19:22:47.040Z,100386.59
2022-12-28T19:25:16.107Z,100392.78
2022-12-28T19:27:44.859Z,100376.19
2022-12-28T19:30:16.303Z,100381.38
2022-12-28T19:32:45.547Z,100389.28
2022-12-28T19:35:15.695Z,100387.53
2022-12-28T19:37:45.078Z,100246.41
2022-12-28T19:40:14.031Z,100363.88
2022-12-28T19:42:43.674Z,100207.25
2022-12-28T19:45:12.814Z,100377.91
2022-12-28T19:47:43.070Z,100331.75
2022-12-28T19:50:12.230Z,100366.50
2022-12-28T19:52:42.424Z,100367.38
2022-12-28T19:55:11.580Z,100370.88
2022-12-28T19:57:43.772Z,100324.66
2022-12-28T20:00:15.075Z,100368.22
2022-12-28T20:02:46.460Z,100362.91
2022-12-28T20:05:15.971Z,100367.28
2022-12-28T20:07:44.895Z,100350.81
2022-12-28T20:10:15.977Z,100358.53
2022-12-28T20:12:45.435Z,100362.00
2022-12-28T20:15:14.045Z,100317.56
2022-12-28T20:17:47.447Z,100360.22
2022-12-28T20:20:21.323Z,100354.03
2022-12-28T20:22:52.545Z,100333.13
2022-12-28T20:25:23.353Z,100189.41
2022-12-28T20:27:59.037Z,100343.53
2022-12-28T20:30:27.963Z,100347.91
2022-12-28T20:32:58.208Z,100112.81
2022-12-28T20:35:30.042Z,100335.63
2022-12-28T20:37:58.836Z,100313.84
2022-12-28T20:40:27.647Z,100331.22
2022-12-28T20:43:13.606Z,100325.97
2022-12-28T20:45:42.119Z,100311.19
2022-12-28T20:48:12.069Z,100327.78
2022-12-28T20:50:41.194Z,100265.13
2022-12-28T20:53:12.066Z,100316.38
2022-12-28T20:55:44.980Z,100261.63
2022-12-28T20:58:15.342Z,100310.22
2022-12-28T21:00:44.342Z,100111.81
2022-12-28T21:03:14.344Z,100303.25
2022-12-28T21:05:42.927Z,100291.88
2022-12-28T21:08:12.439Z,100226.41
2022-12-28T21:10:41.140Z,100267.28
2022-12-28T21:13:09.682Z,100188.03
2022-12-28T21:15:41.892Z,100201.22
2022-12-28T21:18:10.862Z,100278.78
2022-12-28T21:20:46.794Z,100261.44
2022-12-28T21:23:16.435Z,100112.75
2022-12-28T21:25:45.048Z,100270.25
2022-12-28T21:28:13.920Z,100257.09
2022-12-28T21:30:42.841Z,100259.75
2022-12-28T21:33:11.899Z,100221.31
2022-12-28T21:35:41.890Z,100210.03
2022-12-28T21:38:11.767Z,100222.16
2022-12-28T21:40:40.568Z,100221.16
2022-12-28T21:43:09.032Z,100221.09
2022-12-28T21:45:38.154Z,100208.81
2022-12-28T21:48:07.001Z,100127.91
2022-12-28T21:50:35.565Z,100202.84
2022-12-28T21:53:05.470Z,100204.72
2022-12-28T21:55:45.383Z,100106.50
2022-12-28T21:58:14.707Z,100126.59
2022-12-28T22:01:00.691Z,100192.81
2022-12-28T22:03:46.934Z,100043.25
2022-12-28T22:06:15.535Z,100142.34
2022-12-28T22:09:03.305Z,100042.34
2022-12-28T22:11:49.235Z,100177.16
2022-12-28T22:14:21.116Z,100158.75
2022-12-28T22:16:49.980Z,100157.88
2022-12-28T22:19:18.835Z,100053.53
2022-12-28T22:21:47.352Z,100155.28
2022-12-28T22:24:17.380Z,100052.56
2022-12-28T22:26:46.142Z,100135.09
2022-12-28T22:29:15.567Z,100130.69
2022-12-28T22:31:44.262Z,100136.81
2022-12-28T22:34:14.081Z,100089.00
2022-12-28T22:36:47.337Z,100122.00
2022-12-28T22:39:17.381Z,100095.91
2022-12-28T22:41:45.933Z,100029.81
2022-12-28T22:44:14.570Z,100093.19
2022-12-28T22:46:43.132Z,100073.31
2022-12-28T22:49:11.622Z,100063.78
2022-12-28T22:51:40.918Z,100100.22
2022-12-28T22:54:09.286Z,100096.78
2022-12-28T22:56:39.307Z,100089.69
2022-12-28T22:59:12.221Z,100063.63
2022-12-28T23:01:44.630Z,100076.63
2022-12-28T23:04:13.266Z,99894.22
2022-12-28T23:06:41.895Z,100055.81
2022-12-28T23:09:10.407Z,100075.78
2022-12-28T23:11:40.495Z,100067.00
2022-12-28T23:14:30.600Z,99995.75
2022-12-28T23:16:59.827Z,100060.78
2022-12-28T23:19:46.685Z,100058.09
2022-12-28T23:22:36.093Z,100058.72
2022-12-28T23:25:22.934Z,100046.34
2022-12-28T23:27:53.149Z,100069.84
2022-12-28T23:30:25.978Z,100049.50
2022-12-28T23:32:55.636Z,100021.56
2022-12-28T23:35:26.133Z,99902.59
2022-12-28T23:37:54.725Z,100001.44
2022-12-28T23:40:24.719Z,100049.09
2022-12-28T23:42:55.350Z,100022.91
2022-12-28T23:45:25.994Z,100046.22
2022-12-28T23:47:57.449Z,100047.00
2022-12-28T23:50:25.981Z,100003.41
2022-12-28T23:52:54.364Z,100047.63
2022-12-28T23:55:23.342Z,100037.81
2022-12-28T23:57:57.677Z,99970.13
